createdAt,value
2023-04-15T00:00:56.406Z,58.09
2023-04-15T00:03:23.681Z,57.57
2023-04-15T00:05:50.223Z,58.61
2023-04-15T00:08:16.855Z,57.92
2023-04-15T00:10:43.313Z,57.60
2023-04-15T00:13:09.796Z,57.67
2023-04-15T00:15:36.248Z,56.91
2023-04-15T00:18:02.664Z,57.37
2023-04-15T00:20:29.129Z,58.61
2023-04-15T00:22:56.036Z,57.60
2023-04-15T00:25:22.735Z,57.34
2023-04-15T00:27:51.479Z,57.18
2023-04-15T00:30:18.045Z,58.05
2023-04-15T00:32:44.479Z,57.25
2023-04-15T00:35:10.941Z,57.22
2023-04-15T00:37:37.646Z,56.99
2023-04-15T00:40:04.105Z,57.09
2023-04-15T00:42:30.796Z,57.45
2023-04-15T00:44:57.549Z,57.03
2023-04-15T00:47:24.123Z,57.20
2023-04-15T00:49:50.893Z,57.25
2023-04-15T00:52:17.369Z,57.02
2023-04-15T00:54:43.864Z,57.45
2023-04-15T00:57:10.296Z,57.21
2023-04-15T00:59:36.735Z,56.96
2023-04-15T01:02:03.432Z,57.00
2023-04-15T01:04:30.565Z,56.72
2023-04-15T01:06:57.337Z,56.76
2023-04-15T01:09:23.749Z,56.77
2023-04-15T01:11:50.242Z,56.94
2023-04-15T01:14:16.837Z,57.93
2023-04-15T01:16:43.655Z,56.95
2023-04-15T01:19:10.096Z,56.91
2023-04-15T01:21:36.505Z,56.89
2023-04-15T01:24:03.419Z,57.21
2023-04-15T01:26:29.987Z,57.47
2023-04-15T01:28:56.513Z,57.56
2023-04-15T01:31:24.355Z,57.33
2023-04-15T01:33:50.805Z,57.26
2023-04-15T01:36:17.284Z,57.03
2023-04-15T01:38:43.680Z,57.37
2023-04-15T01:41:10.107Z,57.69
2023-04-15T01:43:36.529Z,57.97
2023-04-15T01:46:03.291Z,57.71
2023-04-15T01:48:32.169Z,58.03
2023-04-15T01:51:00.669Z,57.92
2023-04-15T01:53:27.090Z,56.87
2023-04-15T01:55:53.567Z,57.76
2023-04-15T01:58:20.986Z,57.77
2023-04-15T02:00:47.431Z,57.23
2023-04-15T02:03:13.996Z,57.85
2023-04-15T02:05:40.510Z,58.09
2023-04-15T02:08:09.449Z,57.42
2023-04-15T02:10:35.933Z,57.49
2023-04-15T02:13:02.343Z,57.66
2023-04-15T02:15:28.967Z,57.52
2023-04-15T02:17:55.539Z,57.69
2023-04-15T02:20:22.378Z,57.61
2023-04-15T02:22:49.106Z,57.71
2023-04-15T02:25:15.747Z,57.62
2023-04-15T02:27:42.194Z,57.38
2023-04-15T02:30:08.807Z,57.38
2023-04-15T02:32:35.296Z,58.46
2023-04-15T02:35:01.946Z,57.90
2023-04-15T02:37:28.403Z,57.56
2023-04-15T02:39:55.165Z,57.39
2023-04-15T02:42:22.100Z,57.62
2023-04-15T02:44:48.580Z,57.77
2023-04-15T02:47:15.055Z,57.88
2023-04-15T02:49:41.624Z,57.97
2023-04-15T02:52:08.127Z,57.63
2023-04-15T02:54:34.541Z,58.00
2023-04-15T02:57:01.014Z,57.48
2023-04-15T02:59:27.716Z,57.38
2023-04-15T03:01:54.411Z,57.50
2023-04-15T03:04:20.989Z,57.31
2023-04-15T03:06:47.533Z,58.04
2023-04-15T03:09:14.001Z,58.27
2023-04-15T03:11:40.536Z,57.51
2023-04-15T03:14:07.078Z,57.58
2023-04-15T03:16:33.511Z,57.76
2023-04-15T03:19:00.219Z,57.71
2023-04-15T03:21:26.771Z,57.59
2023-04-15T03:23:53.262Z,57.47
2023-04-15T03:26:19.711Z,57.14
2023-04-15T03:28:48.419Z,57.17
2023-04-15T03:31:14.922Z,56.87
2023-04-15T03:33:41.353Z,56.41
2023-04-15T03:36:08.210Z,57.00
2023-04-15T03:38:34.732Z,56.84
2023-04-15T03:41:01.164Z,57.93
2023-04-15T03:43:28.564Z,57.68
2023-04-15T03:45:55.009Z,57.13
2023-04-15T03:48:21.647Z,57.40
2023-04-15T03:50:48.321Z,57.32
2023-04-15T03:53:14.787Z,57.28
2023-04-15T03:55:41.749Z,56.61
2023-04-15T03:58:08.380Z,56.34
2023-04-15T04:00:34.869Z,56.40
2023-04-15T04:03:02.032Z,56.11
2023-04-15T04:05:28.665Z,55.98
2023-04-15T04:07:55.099Z,56.29
2023-04-15T04:10:21.502Z,56.54
2023-04-15T04:12:47.901Z,57.27
2023-04-15T04:15:14.345Z,57.27
2023-04-15T04:17:40.944Z,57.63
2023-04-15T04:20:07.709Z,57.99
2023-04-15T04:22:34.391Z,57.95
2023-04-15T04:25:00.782Z,58.08
2023-04-15T04:27:27.419Z,57.51
2023-04-15T04:29:54.869Z,57.83
2023-04-15T04:32:21.534Z,58.03
2023-04-15T04:34:48.353Z,58.12
2023-04-15T04:37:14.778Z,57.87
2023-04-15T04:39:41.466Z,58.11
2023-04-15T04:42:08.127Z,58.12
2023-04-15T04:44:34.692Z,58.22
2023-04-15T04:47:02.095Z,58.27
2023-04-15T04:49:28.641Z,57.99
2023-04-15T04:51:55.035Z,57.85
2023-04-15T04:54:21.509Z,57.88
2023-04-15T04:56:47.975Z,57.85
2023-04-15T04:59:14.840Z,57.93
2023-04-15T05:01:41.604Z,58.13
2023-04-15T05:04:08.988Z,57.86
2023-04-15T05:06:35.630Z,57.88
2023-04-15T05:09:02.422Z,57.93
2023-04-15T05:11:29.306Z,57.73
2023-04-15T05:13:55.726Z,57.56
2023-04-15T05:16:22.232Z,57.26
2023-04-15T05:18:48.812Z,57.60
2023-04-15T05:21:15.417Z,57.59
2023-04-15T05:23:41.949Z,57.17
2023-04-15T05:26:08.350Z,57.32
2023-04-15T05:28:35.221Z,57.09
2023-04-15T05:31:01.684Z,57.33
2023-04-15T05:33:30.258Z,57.30
2023-04-15T05:35:57.883Z,57.43
2023-04-15T05:38:24.312Z,57.05
2023-04-15T05:40:51.057Z,57.34
2023-04-15T05:43:17.723Z,57.22
2023-04-15T05:45:44.978Z,57.21
2023-04-15T05:48:11.468Z,57.54
2023-04-15T05:50:38.556Z,57.97
2023-04-15T05:53:05.016Z,57.78
2023-04-15T05:55:31.454Z,57.48
2023-04-15T05:57:57.891Z,57.40
2023-04-15T06:00:24.375Z,57.70
2023-04-15T06:02:50.954Z,57.35
2023-04-15T06:05:17.399Z,57.39
2023-04-15T06:07:44.212Z,59.56
2023-04-15T06:10:11.370Z,60.11
2023-04-15T06:12:37.843Z,58.02
2023-04-15T06:15:04.297Z,57.42
2023-04-15T06:17:30.859Z,58.32
2023-04-15T06:19:57.312Z,57.97
2023-04-15T06:22:26.084Z,57.68
2023-04-15T06:24:52.498Z,57.73
2023-04-15T06:27:19.124Z,57.58
2023-04-15T06:29:45.594Z,57.66
2023-04-15T06:32:12.140Z,57.74
2023-04-15T06:34:38.623Z,57.37
2023-04-15T06:37:06.303Z,56.54
2023-04-15T06:39:32.890Z,56.57
2023-04-15T06:41:59.368Z,56.18
2023-04-15T06:44:25.786Z,56.31
2023-04-15T06:46:52.322Z,56.53
2023-04-15T06:49:18.736Z,56.74
2023-04-15T06:51:45.209Z,56.77
2023-04-15T06:54:11.631Z,56.27
2023-04-15T06:56:39.399Z,56.25
2023-04-15T06:59:05.850Z,56.23
2023-04-15T07:01:32.411Z,56.48
2023-04-15T07:03:58.910Z,56.60
2023-04-15T07:06:25.476Z,56.83
2023-04-15T07:08:52.122Z,57.17
2023-04-15T07:11:18.486Z,57.13
2023-04-15T07:13:47.023Z,56.79
2023-04-15T07:16:13.827Z,56.75
2023-04-15T07:18:40.428Z,56.56
2023-04-15T07:21:07.805Z,56.25
2023-04-15T07:23:34.269Z,56.03
2023-04-15T07:26:00.802Z,56.32
2023-04-15T07:28:27.214Z,56.43
2023-04-15T07:30:53.697Z,57.03
2023-04-15T07:33:20.335Z,56.63
2023-04-15T07:35:46.820Z,56.41
2023-04-15T07:38:13.971Z,55.57
2023-04-15T07:40:40.593Z,55.46
2023-04-15T07:43:07.076Z,55.73
2023-04-15T07:45:33.498Z,55.81
2023-04-15T07:48:00.452Z,56.27
2023-04-15T07:50:26.909Z,55.87
2023-04-15T07:52:53.432Z,55.63
2023-04-15T07:55:19.981Z,55.58
2023-04-15T07:57:46.467Z,55.58
2023-04-15T08:00:13.020Z,55.15
2023-04-15T08:02:40.492Z,56.06
2023-04-15T08:05:07.124Z,55.78
2023-04-15T08:07:34.120Z,56.45
2023-04-15T08:10:00.581Z,56.24
2023-04-15T08:12:27.213Z,56.31
2023-04-15T08:14:53.693Z,56.41
2023-04-15T08:17:20.288Z,56.16
2023-04-15T08:19:47.757Z,56.35
2023-04-15T08:22:17.784Z,56.05
2023-04-15T08:24:46.304Z,55.88
2023-04-15T08:27:15.068Z,55.50
2023-04-15T08:29:42.585Z,55.63
2023-04-15T08:32:09.029Z,55.88
2023-04-15T08:34:35.448Z,55.88
2023-04-15T08:37:04.005Z,55.88
2023-04-15T08:39:31.484Z,55.70
2023-04-15T08:41:58.018Z,55.29
2023-04-15T08:44:24.480Z,55.50
2023-04-15T08:46:51.934Z,55.66
2023-04-15T08:49:18.803Z,54.73
2023-04-15T08:51:45.201Z,54.93
2023-04-15T08:54:11.736Z,54.70
2023-04-15T08:56:38.470Z,55.11
2023-04-15T08:59:06.187Z,55.67
2023-04-15T09:01:33.018Z,55.81
2023-04-15T09:03:59.681Z,55.59
2023-04-15T09:06:26.177Z,55.76
2023-04-15T09:08:54.281Z,56.24
2023-04-15T09:11:21.230Z,55.86
2023-04-15T09:13:47.911Z,54.94
2023-04-15T09:16:14.509Z,55.18
2023-04-15T09:18:41.090Z,55.71
2023-04-15T09:21:07.923Z,55.50
2023-04-15T09:23:34.601Z,55.12
2023-04-15T09:26:01.008Z,55.44
2023-04-15T09:28:27.731Z,54.91
2023-04-15T09:30:54.180Z,55.10
2023-04-15T09:33:20.628Z,55.17
2023-04-15T09:35:47.091Z,55.17
2023-04-15T09:38:13.806Z,54.61
2023-04-15T09:40:40.250Z,54.80
2023-04-15T09:43:06.765Z,55.14
2023-04-15T09:45:33.370Z,55.18
2023-04-15T09:48:00.122Z,55.46
2023-04-15T09:50:29.039Z,55.37
2023-04-15T09:52:55.544Z,55.27
2023-04-15T09:55:22.003Z,55.86
2023-04-15T09:57:48.504Z,54.50
2023-04-15T10:00:17.414Z,54.47
2023-04-15T10:02:44.049Z,54.97
2023-04-15T10:05:10.722Z,54.55
2023-04-15T10:07:37.145Z,54.17
2023-04-15T10:10:03.884Z,54.20
2023-04-15T10:12:30.520Z,54.31
2023-04-15T10:14:57.340Z,58.19
2023-04-15T10:17:23.812Z,55.02
2023-04-15T10:19:50.392Z,51.97
2023-04-15T10:22:16.940Z,52.11
2023-04-15T10:24:43.369Z,51.02
2023-04-15T10:27:09.845Z,51.70
2023-04-15T10:29:36.231Z,51.88
2023-04-15T10:32:02.689Z,51.94
2023-04-15T10:34:29.094Z,51.16
2023-04-15T10:36:55.760Z,55.59
2023-04-15T10:39:22.140Z,51.30
2023-04-15T10:41:48.572Z,50.83
2023-04-15T10:44:15.007Z,50.63
2023-04-15T10:46:41.461Z,51.57
2023-04-15T10:49:07.939Z,52.28
2023-04-15T10:51:34.331Z,52.41
2023-04-15T10:54:01.170Z,52.64
2023-04-15T10:56:28.029Z,52.48
2023-04-15T11:30:35.681Z,52.51
2023-04-15T11:33:02.691Z,52.54
2023-04-15T11:35:29.371Z,52.83
2023-04-15T11:37:55.846Z,52.88
2023-04-15T11:40:22.318Z,52.73
2023-04-15T11:42:49.999Z,52.89
2023-04-15T11:45:17.006Z,52.88
2023-04-15T11:47:43.657Z,52.59
2023-04-15T11:50:10.163Z,51.97
2023-04-15T11:52:36.615Z,52.21
2023-04-15T11:55:03.120Z,51.98
2023-04-15T11:57:29.588Z,51.45
2023-04-15T11:59:56.242Z,52.42
2023-04-15T14:28:28.460Z,47.53
2023-04-15T14:30:55.097Z,46.61
2023-04-15T14:33:21.705Z,46.68
2023-04-15T14:35:48.174Z,47.81
2023-04-15T14:38:14.988Z,48.12
2023-04-15T14:40:44.834Z,48.28
2023-04-15T14:43:11.353Z,47.37
2023-04-15T14:45:39.477Z,48.67
2023-04-15T14:48:08.703Z,48.70
2023-04-15T14:50:35.476Z,48.25
2023-04-15T14:53:02.856Z,47.84
2023-04-15T14:55:32.235Z,47.99
2023-04-15T14:57:59.021Z,47.47
2023-04-15T15:00:25.502Z,46.71
2023-04-15T15:02:52.235Z,46.86
2023-04-15T15:05:19.502Z,46.67
2023-04-15T15:07:46.378Z,46.71
2023-04-15T15:10:13.440Z,47.07
2023-04-15T15:12:40.084Z,47.40
2023-04-15T15:15:15.612Z,47.65
2023-04-15T15:17:53.322Z,47.29
2023-04-15T15:20:21.874Z,47.79
2023-04-15T15:22:48.451Z,48.16
2023-04-15T15:25:15.270Z,48.09
2023-04-15T15:27:41.818Z,47.83
2023-04-15T15:30:10.300Z,48.44
2023-04-15T15:32:39.894Z,48.77
2023-04-15T15:35:06.827Z,48.70
2023-04-15T15:37:33.879Z,49.35
2023-04-15T15:40:00.618Z,48.73
2023-04-15T15:42:27.387Z,49.05
2023-04-15T15:44:53.899Z,49.34
2023-04-15T15:47:20.480Z,48.74
2023-04-15T15:49:47.025Z,49.13
2023-04-15T15:52:13.471Z,48.73
2023-04-15T15:54:40.089Z,48.07
2023-04-15T15:57:06.656Z,47.65
2023-04-15T15:59:34.266Z,47.68
2023-04-15T16:02:03.092Z,47.46
2023-04-15T16:04:30.353Z,49.30
2023-04-15T16:06:57.101Z,48.94
2023-04-15T16:46:17.771Z,50.42
2023-04-15T16:48:44.594Z,50.28
2023-04-15T16:51:20.473Z,50.14
2023-04-15T16:53:47.819Z,49.54
2023-04-15T16:56:14.292Z,49.94
2023-04-15T16:58:41.188Z,49.87
2023-04-15T17:01:07.829Z,50.05
2023-04-15T17:03:34.692Z,49.52
2023-04-15T17:06:01.632Z,50.57
2023-04-15T17:08:28.593Z,51.77
2023-04-15T17:10:55.275Z,51.95
2023-04-15T17:13:25.167Z,50.77
2023-04-15T17:15:54.932Z,51.76
2023-04-15T17:18:22.107Z,52.27
2023-04-15T17:20:48.544Z,51.11
2023-04-15T17:23:15.366Z,50.76
2023-04-15T17:25:41.950Z,50.08
2023-04-15T17:28:08.990Z,49.61
2023-04-15T17:30:35.452Z,49.15
2023-04-15T17:33:02.435Z,49.73
2023-04-15T17:35:54.010Z,50.65
2023-04-15T17:38:21.427Z,51.97
2023-04-15T17:40:48.727Z,52.52
2023-04-15T17:43:15.991Z,51.52
2023-04-15T17:45:42.776Z,52.47
2023-04-15T17:48:09.754Z,51.70
2023-04-15T17:50:39.428Z,52.11
2023-04-15T17:53:07.104Z,52.57
2023-04-15T17:55:33.600Z,52.15
2023-04-15T17:58:00.412Z,53.65
2023-04-15T18:00:27.273Z,53.81
2023-04-15T18:02:55.867Z,53.49
2023-04-15T18:05:22.865Z,53.88
2023-04-15T18:07:49.797Z,54.62
2023-04-15T18:10:16.847Z,53.73
2023-04-15T18:12:44.626Z,54.46
2023-04-15T18:15:11.670Z,53.93
2023-04-15T18:17:38.403Z,54.42
2023-04-15T18:20:05.604Z,55.34
2023-04-15T18:22:32.508Z,53.56
2023-04-15T18:24:59.182Z,53.59
2023-04-15T18:27:26.811Z,54.90
2023-04-15T18:29:54.787Z,54.80
2023-04-15T18:32:21.782Z,55.63
2023-04-15T18:34:50.548Z,56.01
2023-04-15T18:37:17.387Z,55.49
2023-04-15T18:39:46.039Z,55.58
2023-04-15T18:42:13.083Z,55.39
2023-04-15T18:44:40.641Z,55.18
2023-04-15T18:47:07.618Z,54.84
2023-04-15T18:49:38.018Z,53.69
2023-04-15T18:52:05.223Z,53.81
2023-04-15T18:54:35.525Z,54.27
2023-04-15T18:57:02.115Z,54.48
2023-04-15T18:59:31.980Z,54.05
2023-04-15T19:01:59.955Z,53.23
2023-04-15T19:04:31.007Z,53.37
2023-04-15T19:07:00.899Z,53.92
2023-04-15T19:09:30.147Z,53.39
2023-04-15T19:11:57.757Z,53.40
2023-04-15T19:14:24.522Z,53.78
2023-04-15T19:16:51.849Z,54.09
2023-04-15T19:19:18.972Z,54.31
2023-04-15T19:21:46.811Z,53.03
2023-04-15T19:24:13.998Z,53.26
2023-04-15T19:26:41.455Z,53.39
2023-04-15T19:29:08.037Z,52.85
2023-04-15T19:31:36.083Z,53.30
2023-04-15T19:34:03.643Z,52.57
2023-04-15T19:36:31.638Z,53.03
2023-04-15T19:38:58.758Z,53.06
2023-04-15T19:41:25.961Z,53.17
2023-04-15T19:43:52.679Z,53.25
2023-04-15T19:46:19.631Z,54.17
2023-04-15T19:48:48.407Z,53.12
2023-04-15T19:51:16.432Z,52.24
2023-04-15T19:53:43.530Z,52.03
2023-04-15T19:56:10.740Z,52.21
2023-04-15T19:58:37.756Z,53.00
2023-04-15T20:01:04.799Z,54.12
2023-04-15T20:03:31.824Z,53.26
2023-04-15T20:05:58.939Z,54.04
2023-04-15T20:08:26.637Z,54.06
2023-04-15T20:10:53.755Z,54.84
2023-04-15T20:13:21.005Z,54.77
2023-04-15T20:15:48.686Z,55.50
2023-04-15T20:18:15.558Z,54.55
2023-04-15T20:20:42.481Z,55.26
2023-04-15T20:23:10.104Z,55.73
2023-04-15T20:25:37.707Z,55.55
2023-04-15T20:28:04.615Z,55.20
2023-04-15T20:30:32.051Z,55.42
2023-04-15T20:32:59.066Z,54.64
2023-04-15T20:35:25.881Z,54.99
2023-04-15T20:37:54.648Z,55.15
2023-04-15T20:40:24.360Z,54.80
2023-04-15T20:42:55.269Z,54.87
2023-04-15T20:45:23.014Z,54.85
2023-04-15T20:47:51.044Z,55.70
2023-04-15T20:50:21.061Z,55.35
2023-04-15T20:52:47.632Z,55.52
2023-04-15T20:55:14.249Z,55.73
2023-04-15T20:57:40.793Z,56.10
2023-04-15T21:00:11.420Z,55.52
2023-04-15T21:02:38.040Z,55.25
2023-04-15T21:05:05.281Z,55.37
2023-04-15T21:07:32.195Z,55.56
2023-04-15T21:09:58.785Z,55.00
2023-04-15T21:12:25.820Z,54.98
2023-04-15T21:14:52.401Z,55.26
2023-04-15T21:17:19.196Z,55.16
2023-04-15T21:19:46.071Z,55.34
2023-04-15T21:22:12.709Z,55.18
2023-04-15T21:24:39.269Z,55.69
2023-04-15T21:27:05.708Z,55.02
2023-04-15T21:29:32.119Z,54.49
2023-04-15T21:31:58.636Z,54.56
2023-04-15T21:34:30.226Z,54.16
2023-04-15T21:36:56.911Z,53.29
2023-04-15T21:39:24.640Z,53.98
2023-04-15T21:41:54.249Z,53.88
2023-04-15T21:44:20.708Z,53.69
2023-04-15T21:46:47.284Z,53.95
2023-04-15T21:49:13.752Z,53.67
2023-04-15T21:51:40.234Z,52.94
2023-04-15T21:54:06.694Z,54.55
2023-04-15T21:56:33.286Z,54.37
2023-04-15T21:59:00.401Z,54.63
2023-04-15T22:01:27.458Z,54.26
2023-04-15T22:03:54.254Z,54.40
2023-04-15T22:06:20.927Z,54.35
2023-04-15T22:08:56.022Z,54.03
2023-04-15T22:11:23.696Z,54.21
2023-04-15T22:13:50.155Z,53.62
2023-04-15T22:16:16.607Z,53.22
2023-04-15T22:18:43.159Z,52.88
2023-04-15T22:21:09.917Z,52.50
2023-04-15T22:23:39.328Z,52.05
2023-04-15T22:26:05.875Z,52.15
2023-04-15T22:28:32.255Z,52.26
2023-04-15T22:30:59.222Z,51.71
2023-04-15T22:33:25.638Z,52.07
2023-04-15T22:35:54.496Z,52.11
2023-04-15T22:38:20.936Z,53.04
2023-04-15T22:40:47.471Z,53.55
2023-04-15T22:43:13.900Z,54.59
2023-04-15T22:45:40.420Z,54.03
2023-04-15T22:48:06.956Z,54.73
2023-04-15T22:50:33.378Z,54.92
2023-04-15T22:52:59.818Z,54.76
2023-04-15T22:55:26.276Z,54.73
2023-04-15T22:57:53.104Z,55.01
2023-04-15T23:00:19.800Z,54.75
2023-04-15T23:02:46.303Z,54.71
2023-04-15T23:05:13.597Z,55.02
2023-04-15T23:07:40.243Z,54.58
2023-04-15T23:10:06.718Z,54.83
2023-04-15T23:12:33.198Z,55.18
2023-04-15T23:14:59.686Z,54.94
2023-04-15T23:17:26.168Z,55.23
2023-04-15T23:19:54.284Z,55.12
2023-04-15T23:22:20.799Z,55.20
2023-04-15T23:24:47.310Z,55.39
2023-04-15T23:27:13.818Z,55.14
2023-04-15T23:29:40.416Z,55.26
2023-04-15T23:32:06.825Z,55.31
2023-04-15T23:34:34.586Z,54.93
2023-04-15T23:37:01.159Z,53.93
2023-04-15T23:39:27.980Z,54.72
2023-04-15T23:41:54.512Z,54.79
2023-04-15T23:44:21.398Z,54.51
2023-04-15T23:46:48.138Z,54.44
2023-04-15T23:49:14.608Z,54.92
2023-04-15T23:51:44.513Z,55.19
2023-04-15T23:54:11.426Z,55.12
2023-04-15T23:56:37.843Z,54.82
2023-04-15T23:59:04.330Z,55.20
